Terminal Aerodrome Forecast
Issued by NWS

Home | Current Version | Previous Version | Text Only | Print | Product List | Glossary On
Versions: 1 2 3 4 5 6 7 8 9 10 11 12 13 14 15 16 17 18 19 20 21 22 23 24 25 26 27 28 29 30 31 32 33 34
000
FTUS43 KGLD 041459 AAH
TAFMCK
TAF AMD
KMCK 041459Z 0415/0512 07005KT 5SM BR VCSH OVC004
     FM041600 14010KT P6SM VCTS SCT015 BKN050CB
      TEMPO 0420/0423 14011KT 3SM +TSRA BKN035 OVC050CB
     FM050200 12009KT P6SM BKN250
     FM050900 08006KT 5SM BR SCT007 BKN070=

USA.gov is the U.S. government's official web portal to all federal, state and local government web resources and services.